createdAt,value
2018-03-12T00:00:55.357Z,6.63
2018-03-12T00:02:56.328Z,6.83
2018-03-12T00:04:57.492Z,6.10
2018-03-12T00:06:58.463Z,5.80
2018-03-12T00:09:00.200Z,5.13
2018-03-12T00:11:01.182Z,5.37
2018-03-12T00:13:02.179Z,5.20
2018-03-12T00:15:03.532Z,5.83
2018-03-12T00:17:04.516Z,5.63
2018-03-12T00:19:05.480Z,5.00
2018-03-12T00:21:06.458Z,4.73
2018-03-12T00:23:07.446Z,4.60
2018-03-12T00:25:08.391Z,5.37
2018-03-12T00:27:10.098Z,6.20
2018-03-12T00:29:12.358Z,5.07
2018-03-12T00:31:13.390Z,6.07
2018-03-12T00:33:14.337Z,5.50
2018-03-12T00:35:15.519Z,5.03
2018-03-12T00:37:16.520Z,6.20
2018-03-12T00:39:18.420Z,5.50
2018-03-12T00:41:19.412Z,6.00
2018-03-12T00:43:20.499Z,6.90
2018-03-12T00:45:21.860Z,6.63
2018-03-12T00:47:23.088Z,5.83
2018-03-12T00:49:25.036Z,5.20
2018-03-12T00:51:26.776Z,4.83
2018-03-12T00:53:27.758Z,5.27
2018-03-12T00:55:28.726Z,4.00
2018-03-12T00:57:29.746Z,5.50
2018-03-12T00:59:31.091Z,5.50
2018-03-12T01:01:32.088Z,5.43
2018-03-12T01:03:33.043Z,5.07
2018-03-12T01:05:34.003Z,6.00
2018-03-12T01:07:34.952Z,7.03
2018-03-12T01:09:35.921Z,6.20
2018-03-12T01:11:36.880Z,5.57
2018-03-12T01:13:37.915Z,6.20
2018-03-12T01:15:38.926Z,6.67
2018-03-12T01:17:40.024Z,6.57
2018-03-12T01:19:41.021Z,6.83
2018-03-12T01:21:42.306Z,7.30
2018-03-12T01:23:43.536Z,5.93
2018-03-12T01:25:44.564Z,6.43
2018-03-12T01:27:45.554Z,7.07
2018-03-12T01:29:46.532Z,7.00
2018-03-12T01:31:48.465Z,5.40
2018-03-12T01:33:49.502Z,6.00
2018-03-12T01:35:50.480Z,6.73
2018-03-12T01:37:51.467Z,7.10
2018-03-12T01:39:52.865Z,6.20
2018-03-12T01:41:53.910Z,5.63
2018-03-12T01:43:55.077Z,5.00
2018-03-12T01:45:56.788Z,6.97
2018-03-12T01:47:58.242Z,6.40
2018-03-12T01:49:59.230Z,7.00
2018-03-12T01:52:00.207Z,7.33
2018-03-12T01:54:01.977Z,6.60
2018-03-12T01:56:03.673Z,5.73
2018-03-12T01:58:04.687Z,6.40
2018-03-12T02:00:06.459Z,6.60
2018-03-12T02:02:07.469Z,7.40
2018-03-12T02:04:08.440Z,6.23
2018-03-12T02:06:10.189Z,6.70
2018-03-12T02:08:11.179Z,6.40
2018-03-12T02:10:12.279Z,7.23
2018-03-12T02:12:13.528Z,6.87
2018-03-12T02:14:14.573Z,7.43
2018-03-12T02:16:15.562Z,6.30
2018-03-12T02:18:16.536Z,7.27
2018-03-12T02:20:17.594Z,7.50
2018-03-12T02:22:18.501Z,8.53
2018-03-12T02:24:19.479Z,7.83
2018-03-12T02:26:20.438Z,8.10
2018-03-12T02:28:21.650Z,7.60
2018-03-12T02:30:23.058Z,7.30
2018-03-12T02:32:24.854Z,8.20
2018-03-12T02:34:26.540Z,9.13
2018-03-12T02:36:27.538Z,9.60
2018-03-12T02:38:28.769Z,8.13
2018-03-12T02:40:30.826Z,8.70
2018-03-12T02:42:31.900Z,7.83
2018-03-12T02:44:32.946Z,7.47
2018-03-12T02:46:33.908Z,8.20
2018-03-12T02:48:34.908Z,7.00
2018-03-12T02:50:35.877Z,7.30
2018-03-12T02:52:36.848Z,6.73
2018-03-12T02:54:37.866Z,7.17
2018-03-12T02:56:38.823Z,6.73
2018-03-12T02:58:40.029Z,7.07
2018-03-12T03:00:40.991Z,7.93
2018-03-12T03:02:42.034Z,8.33
2018-03-12T03:04:43.015Z,8.40
2018-03-12T03:06:43.975Z,9.00
2018-03-12T03:08:44.950Z,8.10
2018-03-12T03:10:46.708Z,8.30
2018-03-12T03:12:49.673Z,7.63
2018-03-12T03:14:50.645Z,7.43
2018-03-12T03:16:52.469Z,7.90
2018-03-12T03:18:53.572Z,7.50
2018-03-12T03:20:54.588Z,8.30
2018-03-12T03:22:55.543Z,8.53
2018-03-12T03:24:57.415Z,7.50
2018-03-12T03:26:58.359Z,8.83
2018-03-12T03:28:59.444Z,7.60
2018-03-12T03:31:00.531Z,6.63
2018-03-12T03:33:01.694Z,7.40
2018-03-12T03:35:02.710Z,7.70
2018-03-12T03:37:03.695Z,8.03
2018-03-12T03:39:04.684Z,6.93
2018-03-12T03:41:05.685Z,7.77
2018-03-12T03:43:06.687Z,7.73
2018-03-12T03:45:07.827Z,8.27
2018-03-12T03:47:08.799Z,7.97
2018-03-12T03:49:09.816Z,9.10
2018-03-12T03:51:10.793Z,8.60
2018-03-12T03:53:11.771Z,9.10
2018-03-12T03:55:12.731Z,8.20
2018-03-12T03:57:13.702Z,8.47
2018-03-12T03:59:14.650Z,8.50
2018-03-12T04:01:15.638Z,7.93
2018-03-12T04:03:16.588Z,9.30
2018-03-12T04:05:17.550Z,9.33
2018-03-12T04:07:18.510Z,79.23
2018-03-12T04:09:19.471Z,18.77
2018-03-12T04:11:20.677Z,11.83
2018-03-12T04:13:21.647Z,10.03
2018-03-12T04:15:23.373Z,10.00
2018-03-12T04:17:24.365Z,10.50
2018-03-12T04:19:26.217Z,10.00
2018-03-12T04:21:28.035Z,9.97
2018-03-12T04:23:28.996Z,9.97
2018-03-12T04:25:29.969Z,9.07
2018-03-12T04:27:30.935Z,9.90
2018-03-12T04:29:32.073Z,9.83
2018-03-12T04:31:33.915Z,9.07
2018-03-12T04:33:35.579Z,8.97
2018-03-12T04:35:37.332Z,8.23
2018-03-12T04:37:41.635Z,8.97
2018-03-12T04:39:42.603Z,7.97
2018-03-12T04:41:43.566Z,8.60
2018-03-12T04:43:44.670Z,9.30
2018-03-12T04:45:45.627Z,8.20
2018-03-12T04:47:46.590Z,8.63
2018-03-12T04:49:47.599Z,7.90
2018-03-12T04:51:48.571Z,9.07
2018-03-12T04:53:49.547Z,9.30
2018-03-12T04:55:50.494Z,9.10
2018-03-12T04:57:51.453Z,9.30
2018-03-12T04:59:52.409Z,8.70
2018-03-12T05:01:53.511Z,8.63
2018-03-12T05:03:54.550Z,8.67
2018-03-12T05:05:55.521Z,6.77
2018-03-12T05:07:56.476Z,7.23
2018-03-12T05:09:57.531Z,7.33
2018-03-12T05:11:59.339Z,7.13
2018-03-12T05:14:00.444Z,7.47
2018-03-12T05:16:01.424Z,9.30
2018-03-12T05:18:02.370Z,7.70
2018-03-12T05:20:03.382Z,7.37
2018-03-12T05:22:04.329Z,7.70
2018-03-12T05:24:05.303Z,8.50
2018-03-12T05:26:06.325Z,8.90
2018-03-12T05:28:07.247Z,8.63
2018-03-12T05:30:08.226Z,10.27
2018-03-12T05:32:10.022Z,9.97
2018-03-12T05:34:11.014Z,9.37
2018-03-12T05:36:11.935Z,9.23
2018-03-12T05:38:12.991Z,9.17
2018-03-12T05:40:13.968Z,8.97
2018-03-12T05:42:15.663Z,8.80
2018-03-12T05:44:16.737Z,10.40
2018-03-12T05:46:17.812Z,9.63
2018-03-12T05:48:18.766Z,9.73
2018-03-12T05:50:19.720Z,10.07
2018-03-12T05:52:21.474Z,10.03
2018-03-12T05:54:22.460Z,10.90
2018-03-12T05:56:23.527Z,11.17
2018-03-12T05:58:24.479Z,11.60
2018-03-12T06:00:25.456Z,11.40
2018-03-12T06:02:26.548Z,13.27
2018-03-12T06:04:27.511Z,12.77
2018-03-12T06:06:28.475Z,10.57
2018-03-12T06:08:29.430Z,12.03
2018-03-12T06:10:30.393Z,10.27
2018-03-12T06:12:31.369Z,11.57
2018-03-12T06:14:33.192Z,9.80
2018-03-12T06:16:34.174Z,11.07
2018-03-12T06:18:35.960Z,10.43
2018-03-12T06:20:36.940Z,12.17
2018-03-12T06:22:37.890Z,11.10
2018-03-12T06:24:38.854Z,10.57
2018-03-12T06:26:39.795Z,10.90
2018-03-12T06:28:40.860Z,11.80
2018-03-12T06:30:42.841Z,10.87
2018-03-12T06:32:43.792Z,12.70
2018-03-12T06:34:44.743Z,11.40
2018-03-12T06:36:45.700Z,12.97
2018-03-12T06:38:46.671Z,13.53
2018-03-12T06:40:47.698Z,12.67
2018-03-12T06:42:48.663Z,13.00
2018-03-12T06:44:49.615Z,13.60
2018-03-12T06:46:50.595Z,25.70
2018-03-12T06:48:51.543Z,15.70
2018-03-12T06:50:53.606Z,15.57
2018-03-12T06:52:54.784Z,12.90
2018-03-12T06:54:56.145Z,13.93
2018-03-12T06:56:57.322Z,14.17
2018-03-12T06:58:58.256Z,12.67
2018-03-12T07:00:59.548Z,13.90
2018-03-12T07:03:00.532Z,12.70
2018-03-12T07:05:01.507Z,13.87
2018-03-12T07:07:02.791Z,12.00
2018-03-12T07:09:03.776Z,14.43
2018-03-12T07:11:05.496Z,26.47
2018-03-12T07:13:09.418Z,40.00
2018-03-12T07:15:14.321Z,33.00
2018-03-12T07:17:16.137Z,19.10
2018-03-12T07:19:17.100Z,16.40
2018-03-12T07:21:18.051Z,13.83
2018-03-12T07:23:19.036Z,18.17
2018-03-12T07:25:19.976Z,17.47
2018-03-12T07:27:23.124Z,18.83
2018-03-12T07:29:24.168Z,18.43
2018-03-12T07:31:28.170Z,17.30
2018-03-12T07:33:29.182Z,14.73
2018-03-12T07:35:32.153Z,15.13
2018-03-12T07:37:33.274Z,17.30
2018-03-12T07:39:34.222Z,15.20
2018-03-12T07:41:35.197Z,16.90
2018-03-12T07:43:36.118Z,14.27
2018-03-12T07:45:37.832Z,15.63
2018-03-12T07:47:38.780Z,16.40
2018-03-12T07:49:43.224Z,15.07
2018-03-12T07:51:53.919Z,14.83
2018-03-12T07:53:59.668Z,16.90
2018-03-12T07:56:00.726Z,14.60
2018-03-12T07:58:01.677Z,14.27
2018-03-12T08:00:09.197Z,13.20
2018-03-12T08:02:10.796Z,14.13
2018-03-12T08:04:11.743Z,14.07
2018-03-12T08:06:14.171Z,13.60
2018-03-12T08:08:28.840Z,14.00
2018-03-12T08:10:30.673Z,13.60
2018-03-12T08:12:33.283Z,15.70
2018-03-12T08:14:34.432Z,14.17
2018-03-12T08:16:36.144Z,13.63
2018-03-12T08:18:38.732Z,13.70
2018-03-12T08:20:39.806Z,14.90
2018-03-12T08:22:41.595Z,13.30
2018-03-12T08:24:42.554Z,12.60
2018-03-12T08:26:52.214Z,12.90
2018-03-12T08:28:54.109Z,12.67
2018-03-12T08:30:58.481Z,12.57
2018-03-12T08:33:00.247Z,13.63
2018-03-12T08:35:01.192Z,12.70
2018-03-12T08:37:02.144Z,13.17
2018-03-12T08:39:23.740Z,13.47
2018-03-12T08:41:32.558Z,13.83
2018-03-12T08:43:36.134Z,14.20
2018-03-12T08:45:37.263Z,12.90
2018-03-12T08:47:38.950Z,13.53
2018-03-12T08:49:39.891Z,12.70
2018-03-12T08:51:40.860Z,12.87
2018-03-12T08:53:43.516Z,13.23
2018-03-12T08:55:44.507Z,14.57
2018-03-12T08:57:45.455Z,14.93
2018-03-12T08:59:46.483Z,13.70
2018-03-12T09:01:47.446Z,13.90
2018-03-12T09:04:00.962Z,15.60
2018-03-12T09:06:17.106Z,15.37
2018-03-12T09:08:19.012Z,14.83
2018-03-12T09:10:19.984Z,17.63
2018-03-12T09:12:31.039Z,16.70
2018-03-12T09:14:32.022Z,17.33
2018-03-12T09:17:01.120Z,17.37
2018-03-12T09:19:02.118Z,18.00
2018-03-12T09:21:04.872Z,19.03
2018-03-12T09:23:06.087Z,18.20
2018-03-12T09:25:17.978Z,19.60
2018-03-12T09:27:24.749Z,19.43
2018-03-12T09:29:25.783Z,20.60
2018-03-12T09:31:26.755Z,21.53
2018-03-12T09:33:27.733Z,21.53
2018-03-12T09:35:28.688Z,22.17
2018-03-12T09:37:29.647Z,23.60
2018-03-12T09:39:44.634Z,21.07
2018-03-12T09:42:01.110Z,22.70
2018-03-12T09:44:02.075Z,21.30
2018-03-12T09:48:31.319Z,19.83
2018-03-12T09:50:32.317Z,21.20
2018-03-12T09:52:34.496Z,22.27
2018-03-12T09:54:36.149Z,20.90
2018-03-12T09:56:37.146Z,26.37
2018-03-12T09:58:40.095Z,24.90
2018-03-12T10:00:41.183Z,22.43
2018-03-12T10:02:43.065Z,24.27
2018-03-12T10:04:44.184Z,24.90
2018-03-12T10:06:45.852Z,25.67
2018-03-12T10:08:46.833Z,25.97
2018-03-12T10:10:47.803Z,26.47
2018-03-12T10:12:48.854Z,27.77
2018-03-12T10:14:49.800Z,27.90
2018-03-12T10:16:52.271Z,35.75
2018-03-12T10:18:53.300Z,31.40
2018-03-12T10:20:54.314Z,29.63
2018-03-12T10:22:55.359Z,26.57
2018-03-12T10:24:56.307Z,28.33
2018-03-12T10:26:57.283Z,29.20
2018-03-12T10:28:58.284Z,29.80
2018-03-12T10:30:59.262Z,28.20
2018-03-12T10:33:00.440Z,28.57
2018-03-12T10:35:01.417Z,29.27
2018-03-12T10:37:18.668Z,32.00
2018-03-12T10:41:59.966Z,29.60
2018-03-12T10:44:00.932Z,32.13
2018-03-12T10:48:21.034Z,34.50
2018-03-12T10:50:21.990Z,32.33
2018-03-12T10:52:23.011Z,29.73
2018-03-12T10:54:28.835Z,31.93
2018-03-12T10:56:29.867Z,31.07
2018-03-12T10:58:30.858Z,31.97
2018-03-12T11:00:34.790Z,32.33
2018-03-12T11:02:40.755Z,29.10
2018-03-12T11:04:59.584Z,28.43
2018-03-12T11:07:06.797Z,29.40
2018-03-12T11:09:07.771Z,27.93
2018-03-12T11:11:29.119Z,28.23
2018-03-12T11:13:30.340Z,25.23
2018-03-12T11:15:45.680Z,24.20
2018-03-12T11:17:46.739Z,25.80
2018-03-12T11:19:47.708Z,24.37
2018-03-12T11:21:48.820Z,23.70
2018-03-12T11:23:49.779Z,24.70
2018-03-12T11:25:50.746Z,22.13
2018-03-12T11:27:52.459Z,24.27
2018-03-12T11:29:53.464Z,23.27
2018-03-12T11:31:54.625Z,22.20
2018-03-12T11:33:55.612Z,23.60
2018-03-12T11:35:56.598Z,21.70
2018-03-12T11:38:02.163Z,22.50
2018-03-12T11:40:03.281Z,22.43
2018-03-12T11:42:04.213Z,20.73
2018-03-12T11:44:05.374Z,22.87
2018-03-12T11:46:06.359Z,20.50
2018-03-12T11:48:07.379Z,20.30
2018-03-12T11:50:11.767Z,24.47
2018-03-12T11:54:22.212Z,20.57
2018-03-12T11:56:23.163Z,22.70
2018-03-12T11:58:24.155Z,22.10
2018-03-12T12:00:25.135Z,22.00
2018-03-12T12:02:26.067Z,21.90
2018-03-12T12:04:27.030Z,22.43
2018-03-12T12:06:28.759Z,22.90
2018-03-12T12:08:29.797Z,25.30
2018-03-12T12:10:30.818Z,23.77
2018-03-12T12:12:31.794Z,24.37
2018-03-12T12:14:32.794Z,24.70
2018-03-12T12:16:33.770Z,21.50
2018-03-12T12:19:01.135Z,24.60
2018-03-12T12:21:02.400Z,23.13
2018-03-12T12:23:03.355Z,25.07
2018-03-12T12:25:04.340Z,24.30
2018-03-12T12:27:17.217Z,24.57
2018-03-12T12:29:18.449Z,24.57
2018-03-12T12:31:19.453Z,25.77
2018-03-12T12:33:28.491Z,25.50
2018-03-12T12:35:41.687Z,25.30
2018-03-12T12:37:43.728Z,26.53
2018-03-12T12:39:44.720Z,26.77
2018-03-12T12:41:45.723Z,25.20
2018-03-12T12:43:46.699Z,25.63
2018-03-12T12:45:47.697Z,25.87
2018-03-12T12:47:58.655Z,24.63
2018-03-12T12:49:59.648Z,25.90
2018-03-12T12:52:00.678Z,23.60
2018-03-12T12:54:01.660Z,26.23
2018-03-12T12:56:02.652Z,26.63
2018-03-12T13:40:23.859Z,18.17
2018-03-12T13:42:32.431Z,19.50
2018-03-12T13:44:33.404Z,21.80
2018-03-12T13:46:42.543Z,22.17
2018-03-12T13:48:43.704Z,17.10
2018-03-12T13:51:03.161Z,20.43
2018-03-12T13:53:14.221Z,19.73
2018-03-12T13:55:19.250Z,18.30
2018-03-12T13:57:20.314Z,18.83
2018-03-12T13:59:21.287Z,17.13
2018-03-12T14:01:22.286Z,18.73
2018-03-12T14:03:23.274Z,17.90
2018-03-12T14:05:25.419Z,17.10
2018-03-12T14:07:26.529Z,16.40
2018-03-12T14:09:27.596Z,16.67
2018-03-12T14:11:28.642Z,17.47
2018-03-12T14:13:29.624Z,15.37
2018-03-12T14:15:30.699Z,15.00
2018-03-12T14:17:32.623Z,15.27
2018-03-12T14:19:34.383Z,16.77
2018-03-12T14:21:35.454Z,18.07
2018-03-12T14:23:36.502Z,17.20
2018-03-12T14:25:38.630Z,15.67
2018-03-12T14:27:41.265Z,17.40
2018-03-12T14:29:42.334Z,16.27
2018-03-12T14:31:43.420Z,16.60
2018-03-12T14:33:44.392Z,15.27
2018-03-12T14:35:45.385Z,16.97
2018-03-12T14:37:46.470Z,15.83
2018-03-12T14:39:47.448Z,14.17
2018-03-12T14:41:48.460Z,13.80
2018-03-12T14:43:50.247Z,12.70
2018-03-12T14:45:51.343Z,13.23
2018-03-12T14:47:52.421Z,13.80
2018-03-12T14:49:54.075Z,13.00
2018-03-12T14:51:56.794Z,12.63
2018-03-12T14:54:01.295Z,13.43
2018-03-12T14:56:03.255Z,10.17
2018-03-12T14:58:04.232Z,11.73
2018-03-12T15:00:05.330Z,11.70
2018-03-12T15:02:06.333Z,10.40
2018-03-12T15:04:09.715Z,10.43
2018-03-12T15:06:10.850Z,10.03
2018-03-12T15:08:11.849Z,10.63
2018-03-12T15:10:12.858Z,10.90
2018-03-12T15:12:14.678Z,11.20
2018-03-12T15:14:32.671Z,11.73
2018-03-12T15:16:34.509Z,10.60
2018-03-12T15:18:36.778Z,10.93
2018-03-12T15:20:37.775Z,9.70
2018-03-12T15:22:38.770Z,10.10
2018-03-12T15:24:40.526Z,10.83
2018-03-12T15:26:41.545Z,11.53
2018-03-12T15:28:42.524Z,10.60
2018-03-12T15:30:43.517Z,10.67
2018-03-12T15:32:46.815Z,11.23
2018-03-12T15:34:49.469Z,11.93
2018-03-12T15:36:52.375Z,11.80
2018-03-12T15:38:54.288Z,11.40
2018-03-12T15:40:56.154Z,10.40
2018-03-12T15:42:58.297Z,9.83
2018-03-12T15:44:59.424Z,10.20
2018-03-12T15:47:02.104Z,10.80
2018-03-12T15:49:03.190Z,10.30
2018-03-12T15:51:05.549Z,11.30
2018-03-12T15:53:06.649Z,9.80
2018-03-12T15:55:07.617Z,10.13
2018-03-12T15:57:08.574Z,9.70
2018-03-12T15:59:09.616Z,10.70
2018-03-12T16:01:11.036Z,10.20
2018-03-12T16:03:12.067Z,9.90
2018-03-12T16:05:13.020Z,9.73
2018-03-12T16:07:14.328Z,9.87
2018-03-12T16:09:15.461Z,9.63
2018-03-12T16:11:16.557Z,10.33
2018-03-12T16:13:27.020Z,10.90
2018-03-12T16:15:28.135Z,10.30
2018-03-12T16:17:29.127Z,10.13
2018-03-12T16:19:30.992Z,10.30
2018-03-12T16:21:32.750Z,10.23
2018-03-12T16:23:33.766Z,10.77
2018-03-12T16:25:34.736Z,10.13
2018-03-12T16:27:38.603Z,11.37
2018-03-12T16:29:39.724Z,11.17
2018-03-12T16:31:40.752Z,10.70
2018-03-12T16:33:44.655Z,10.17
2018-03-12T16:35:45.719Z,10.60
2018-03-12T16:37:47.507Z,10.13
2018-03-12T16:39:48.943Z,10.70
2018-03-12T16:41:50.180Z,11.83
2018-03-12T16:43:51.167Z,9.93
2018-03-12T16:45:54.380Z,10.90
2018-03-12T16:47:55.466Z,11.43
2018-03-12T16:49:56.566Z,12.47
2018-03-12T16:51:57.563Z,11.87
2018-03-12T16:53:58.573Z,11.97
2018-03-12T16:55:59.664Z,11.07
2018-03-12T16:58:01.457Z,11.80
2018-03-12T17:02:23.325Z,11.27
2018-03-12T17:04:24.304Z,13.47
2018-03-12T17:06:25.338Z,12.10
2018-03-12T17:08:26.299Z,12.40
2018-03-12T17:10:27.276Z,11.97
2018-03-12T17:12:32.352Z,12.90
2018-03-12T17:14:33.316Z,12.33
2018-03-12T17:16:35.105Z,13.50
2018-03-12T17:18:36.125Z,14.33
2018-03-12T17:20:37.836Z,14.70
2018-03-12T17:22:39.375Z,14.50
2018-03-12T17:24:40.821Z,14.97
2018-03-12T17:26:42.434Z,14.40
2018-03-12T17:28:44.194Z,13.67
2018-03-12T17:30:45.581Z,12.60
2018-03-12T17:32:46.591Z,13.37
2018-03-12T17:34:47.640Z,13.00
2018-03-12T17:36:48.602Z,13.80
2018-03-12T17:38:49.567Z,13.47
2018-03-12T17:40:50.540Z,13.53
2018-03-12T17:42:53.205Z,14.80
2018-03-12T17:44:54.151Z,14.33
2018-03-12T17:46:55.121Z,17.10
2018-03-12T17:48:56.079Z,16.47
2018-03-12T17:50:57.039Z,17.97
2018-03-12T17:52:58.043Z,12.83
2018-03-12T17:54:59.334Z,14.93
2018-03-12T17:57:01.091Z,13.73
2018-03-12T17:59:16.874Z,13.00
2018-03-12T18:01:22.210Z,12.50
2018-03-12T18:03:28.457Z,12.70
2018-03-12T18:05:38.647Z,14.10
2018-03-12T18:08:02.815Z,12.97
2018-03-12T18:10:03.851Z,12.60
2018-03-12T18:12:04.871Z,13.83
2018-03-12T18:14:06.035Z,13.37
2018-03-12T18:16:09.071Z,14.00
2018-03-12T18:18:16.381Z,15.73
2018-03-12T18:20:17.366Z,16.43
2018-03-12T18:22:18.373Z,13.70
2018-03-12T18:24:19.349Z,14.43
2018-03-12T18:26:20.323Z,14.93
2018-03-12T18:28:22.109Z,16.93
2018-03-12T18:30:23.153Z,13.00
2018-03-12T18:32:24.284Z,13.63
2018-03-12T18:34:25.264Z,10.27
2018-03-12T18:36:27.307Z,11.10
2018-03-12T18:38:28.394Z,11.23
2018-03-12T18:40:37.004Z,11.30
2018-03-12T18:42:38.119Z,11.27
2018-03-12T18:44:57.947Z,11.50
2018-03-12T18:46:58.971Z,11.30
2018-03-12T18:51:37.630Z,10.63
2018-03-12T18:53:42.945Z,12.00
2018-03-12T18:58:29.618Z,11.37
2018-03-12T19:00:30.722Z,12.47
2018-03-12T19:02:31.707Z,11.83
2018-03-12T19:04:34.601Z,12.37
2018-03-12T19:06:35.591Z,11.57
2018-03-12T19:08:39.452Z,12.93
2018-03-12T19:10:41.624Z,11.73
2018-03-12T19:12:43.417Z,12.30
2018-03-12T19:14:51.951Z,12.50
2018-03-12T19:16:58.682Z,12.27
2018-03-12T19:18:59.757Z,10.60
2018-03-12T19:23:28.751Z,11.47
2018-03-12T19:25:29.768Z,9.90
2018-03-12T19:27:30.762Z,10.20
2018-03-12T19:29:31.724Z,8.20
2018-03-12T19:31:32.772Z,8.83
2018-03-12T19:33:33.778Z,7.57
2018-03-12T19:35:35.782Z,6.80
2018-03-12T19:37:36.943Z,7.00
2018-03-12T19:39:38.125Z,7.00
2018-03-12T19:41:45.388Z,7.10
2018-03-12T19:43:46.636Z,7.10
2018-03-12T19:45:47.627Z,6.40
2018-03-12T19:47:58.633Z,7.80
2018-03-12T19:52:14.803Z,6.90
2018-03-12T19:54:15.803Z,6.47
2018-03-12T19:56:30.473Z,6.67
2018-03-12T19:58:31.536Z,7.00
2018-03-12T20:00:32.560Z,5.80
2018-03-12T20:02:33.774Z,6.40
2018-03-12T20:04:59.202Z,7.80
2018-03-12T20:07:00.195Z,6.57
2018-03-12T20:09:01.400Z,6.50
2018-03-12T20:11:09.876Z,6.27
2018-03-12T20:13:18.366Z,6.57
2018-03-12T20:15:38.158Z,5.90
2018-03-12T20:17:58.457Z,6.67
2018-03-12T20:19:59.563Z,6.10
2018-03-12T20:22:00.672Z,5.27
2018-03-12T20:24:04.334Z,5.07
2018-03-12T20:26:14.366Z,5.10
2018-03-12T20:28:17.569Z,5.10
2018-03-12T20:30:20.136Z,5.30
2018-03-12T20:32:21.987Z,4.70
2018-03-12T20:34:23.029Z,3.83
2018-03-12T20:36:30.115Z,4.77
2018-03-12T20:38:31.299Z,4.30
2018-03-12T20:40:32.400Z,4.60
2018-03-12T20:42:33.421Z,5.60
2018-03-12T20:44:34.404Z,4.70
2018-03-12T20:46:36.368Z,5.37
2018-03-12T20:48:37.383Z,5.80
2018-03-12T20:50:39.131Z,4.57
2018-03-12T20:52:40.425Z,4.57
2018-03-12T20:54:41.474Z,5.00
2018-03-12T20:56:44.744Z,5.13
2018-03-12T20:58:45.837Z,5.30
2018-03-12T21:00:46.810Z,5.43
2018-03-12T21:02:47.834Z,5.00
2018-03-12T21:04:48.818Z,5.23
2018-03-12T21:06:49.841Z,4.70
2018-03-12T21:08:50.942Z,5.27
2018-03-12T21:10:51.954Z,5.43
2018-03-12T21:12:53.065Z,5.73
2018-03-12T21:14:54.132Z,5.73
2018-03-12T21:16:55.148Z,4.67
2018-03-12T21:18:56.466Z,5.00
2018-03-12T21:20:58.180Z,5.80
2018-03-12T21:23:01.916Z,4.97
2018-03-12T21:25:03.844Z,4.50
2018-03-12T21:27:04.855Z,4.60
2018-03-12T21:29:06.795Z,5.07
2018-03-12T21:31:10.525Z,6.00
2018-03-12T21:33:12.565Z,5.10
2018-03-12T21:35:14.261Z,4.83
2018-03-12T21:37:16.180Z,4.63
2018-03-12T21:39:17.295Z,5.33
2018-03-12T21:41:18.314Z,4.50
2018-03-12T21:43:23.836Z,4.40
2018-03-12T21:45:24.878Z,4.43
2018-03-12T21:47:25.880Z,4.60
2018-03-12T21:49:27.586Z,4.50
2018-03-12T21:51:29.483Z,5.00
2018-03-12T21:53:31.259Z,4.57
2018-03-12T21:55:32.346Z,4.53
2018-03-12T21:57:34.139Z,5.80
2018-03-12T21:59:40.845Z,4.93
2018-03-12T22:01:47.279Z,4.90
2018-03-12T22:03:48.432Z,4.97
2018-03-12T22:05:51.709Z,4.97
2018-03-12T22:07:53.173Z,4.93
2018-03-12T22:09:54.315Z,4.50
2018-03-12T22:11:55.384Z,3.87
2018-03-12T22:13:56.372Z,5.17
2018-03-12T22:15:57.330Z,5.63
2018-03-12T22:17:58.344Z,4.80
2018-03-12T22:19:59.496Z,4.97
2018-03-12T22:22:00.508Z,5.30
2018-03-12T22:24:01.594Z,5.00
2018-03-12T22:26:02.584Z,5.47
2018-03-12T22:28:03.691Z,6.03
2018-03-12T22:30:04.681Z,5.03
2018-03-12T22:32:05.672Z,4.83
2018-03-12T22:34:06.649Z,5.57
2018-03-12T22:36:07.652Z,5.00
2018-03-12T22:38:08.752Z,5.60
2018-03-12T22:40:09.736Z,6.33
2018-03-12T22:42:10.691Z,5.30
2018-03-12T22:44:12.374Z,5.20
2018-03-12T22:46:13.846Z,5.33
2018-03-12T22:48:15.761Z,4.80
2018-03-12T22:50:19.603Z,5.70
2018-03-12T22:52:20.719Z,5.40
2018-03-12T22:54:21.772Z,5.93
2018-03-12T22:56:23.352Z,5.30
2018-03-12T22:58:24.977Z,6.00
2018-03-12T23:00:26.493Z,6.53
2018-03-12T23:02:28.578Z,5.40
2018-03-12T23:04:29.603Z,6.43
2018-03-12T23:06:31.033Z,5.80
2018-03-12T23:08:32.256Z,6.47
2018-03-12T23:10:33.288Z,5.80
2018-03-12T23:12:34.360Z,6.47
2018-03-12T23:14:38.885Z,5.80
2018-03-12T23:16:39.924Z,5.47
2018-03-12T23:18:40.918Z,6.90
2018-03-12T23:20:42.514Z,5.97
2018-03-12T23:22:43.561Z,5.63
2018-03-12T23:24:44.645Z,5.67
2018-03-12T23:26:45.616Z,5.30
2018-03-12T23:28:46.664Z,6.20
2018-03-12T23:30:47.680Z,6.30
2018-03-12T23:32:49.386Z,6.40
2018-03-12T23:34:50.502Z,6.23
2018-03-12T23:36:51.463Z,6.23
2018-03-12T23:38:52.438Z,6.17
2018-03-12T23:40:54.404Z,5.60
2018-03-12T23:42:55.580Z,6.30
2018-03-12T23:44:56.569Z,6.13
2018-03-12T23:46:58.855Z,5.10
2018-03-12T23:48:59.844Z,6.50
2018-03-12T23:51:00.949Z,6.00
2018-03-12T23:53:01.936Z,7.33
2018-03-12T23:55:02.930Z,8.10
2018-03-12T23:57:04.691Z,7.60
2018-03-12T23:59:05.660Z,6.20
